createdAt,value
2024-03-11T00:04:07.994Z,2.30
2024-03-11T00:09:21.366Z,2.85
2024-03-11T00:14:27.885Z,1.85
2024-03-11T00:19:30.056Z,1.90
2024-03-11T00:24:32.096Z,2.28
2024-03-11T00:29:34.083Z,1.77
2024-03-11T00:34:36.453Z,2.05
2024-03-11T00:39:38.409Z,1.88
2024-03-11T00:44:40.906Z,1.70
2024-03-11T00:49:43.337Z,1.73
2024-03-11T00:54:46.040Z,2.15
2024-03-11T00:59:48.411Z,2.08
2024-03-11T01:04:50.473Z,1.77
2024-03-11T01:09:53.271Z,2.05
2024-03-11T01:14:56.520Z,1.80
2024-03-11T01:19:58.990Z,1.80
2024-03-11T01:25:01.108Z,1.48
2024-03-11T01:30:03.711Z,1.50
2024-03-11T01:35:05.782Z,1.33
2024-03-11T01:40:11.447Z,1.38
2024-03-11T01:45:14.765Z,1.33
2024-03-11T01:50:18.468Z,1.60
2024-03-11T01:55:21.308Z,1.70
2024-03-11T02:00:24.012Z,1.10
2024-03-11T02:05:28.319Z,1.60
2024-03-11T02:10:31.057Z,0.98
2024-03-11T02:15:33.056Z,1.40
2024-03-11T02:20:36.911Z,1.23
2024-03-11T02:25:39.404Z,1.10
2024-03-11T02:30:41.693Z,1.20
2024-03-11T02:35:43.870Z,1.13
2024-03-11T02:40:45.924Z,0.90
2024-03-11T02:45:47.892Z,1.05
2024-03-11T02:50:50.347Z,1.02
2024-03-11T02:55:52.426Z,1.00
2024-03-11T03:00:54.499Z,0.80
2024-03-11T03:05:57.124Z,1.13
2024-03-11T03:11:03.888Z,0.95
2024-03-11T03:16:06.396Z,0.80
2024-03-11T03:21:08.418Z,0.73
2024-03-11T03:26:10.899Z,0.90
2024-03-11T03:31:13.655Z,1.08
2024-03-11T03:36:15.747Z,0.90
2024-03-11T03:41:18.067Z,1.02
2024-03-11T03:46:20.079Z,0.73
2024-03-11T03:51:22.016Z,1.00
2024-03-11T03:56:27.206Z,0.85
2024-03-11T04:01:29.414Z,0.73
2024-03-11T04:06:33.817Z,0.70
2024-03-11T04:11:37.363Z,0.80
2024-03-11T04:16:39.465Z,0.77
2024-03-11T04:21:42.141Z,0.50
2024-03-11T04:26:44.134Z,0.80
2024-03-11T04:31:46.262Z,0.70
2024-03-11T04:36:48.765Z,0.47
2024-03-11T04:41:51.311Z,0.60
2024-03-11T04:46:56.010Z,0.50
2024-03-11T04:51:59.363Z,0.60
2024-03-11T04:57:02.196Z,0.75
2024-03-11T05:02:05.010Z,0.50
2024-03-11T05:07:07.216Z,0.60
2024-03-11T05:12:09.356Z,0.68
2024-03-11T05:17:12.357Z,1.10
2024-03-11T05:22:15.010Z,0.75
2024-03-11T05:27:17.361Z,0.63
2024-03-11T05:32:19.509Z,0.55
2024-03-11T05:37:22.315Z,1.02
2024-03-11T05:42:24.325Z,0.80
2024-03-11T05:47:27.672Z,0.50
2024-03-11T05:52:30.501Z,0.40
2024-03-11T05:57:37.105Z,0.70
2024-03-11T06:02:40.041Z,0.90
2024-03-11T06:07:44.129Z,0.70
2024-03-11T06:12:46.497Z,0.40
2024-03-11T06:17:49.135Z,0.57
2024-03-11T06:22:51.257Z,0.47
2024-03-11T06:27:53.439Z,0.60
2024-03-11T06:32:55.729Z,0.40
2024-03-11T06:37:57.935Z,0.30
2024-03-11T06:43:00.057Z,0.30
2024-03-11T06:48:02.538Z,0.35
2024-03-11T06:53:05.927Z,0.40
2024-03-11T06:58:08.366Z,0.38
2024-03-11T07:03:10.500Z,0.30
2024-03-11T07:08:12.522Z,0.50
2024-03-11T07:13:14.999Z,0.28
2024-03-11T07:18:20.121Z,0.32
2024-03-11T07:23:22.319Z,0.30
2024-03-11T07:28:24.440Z,0.50
2024-03-11T07:33:26.419Z,0.25
2024-03-11T07:38:29.161Z,0.30
2024-03-11T07:43:31.676Z,0.47
2024-03-11T07:48:34.125Z,0.30
2024-03-11T07:53:36.477Z,0.88
2024-03-11T07:58:38.340Z,0.52
2024-03-11T08:03:40.428Z,0.55
2024-03-11T08:08:42.680Z,0.25
2024-03-11T08:13:44.836Z,0.38
2024-03-11T08:18:46.833Z,0.38
2024-03-11T08:23:48.778Z,0.75
2024-03-11T08:28:50.861Z,0.50
2024-03-11T08:33:53.269Z,0.45
2024-03-11T08:38:55.300Z,0.60
2024-03-11T08:43:57.517Z,0.40
2024-03-11T08:48:59.640Z,0.60
2024-03-11T08:54:01.814Z,0.30
2024-03-11T08:59:09.426Z,0.60
2024-03-11T09:04:12.200Z,0.30
2024-03-11T09:09:16.037Z,0.50
2024-03-11T09:14:18.254Z,0.95
2024-03-11T09:19:22.560Z,0.40
2024-03-11T09:24:26.482Z,0.40
2024-03-11T09:29:28.634Z,0.30
2024-03-11T09:34:30.643Z,0.30
2024-03-11T09:39:36.070Z,0.35
2024-03-11T09:44:38.179Z,0.20
2024-03-11T09:49:40.603Z,0.30
2024-03-11T09:54:42.741Z,0.32
2024-03-11T09:59:51.411Z,0.20
2024-03-11T10:04:55.447Z,0.30
2024-03-11T10:09:57.866Z,0.40
2024-03-11T10:15:02.115Z,0.40
2024-03-11T10:20:15.725Z,0.20
2024-03-11T10:25:24.939Z,0.25
2024-03-11T10:30:28.108Z,0.40
2024-03-11T10:35:41.263Z,0.60
2024-03-11T10:40:46.833Z,0.30
2024-03-11T10:45:49.235Z,0.20
2024-03-11T10:50:57.801Z,0.40
2024-03-11T10:56:01.608Z,0.38
2024-03-11T11:01:04.753Z,0.32
2024-03-11T11:06:16.623Z,0.30
2024-03-11T11:11:21.353Z,0.60
2024-03-11T11:16:27.520Z,0.73
2024-03-11T11:21:31.343Z,0.43
2024-03-11T11:26:44.123Z,0.60
2024-03-11T11:32:10.205Z,0.40
2024-03-11T11:37:36.190Z,0.30
2024-03-11T11:42:41.112Z,0.60
2024-03-11T11:47:47.330Z,0.50
2024-03-11T11:53:05.710Z,0.50
2024-03-11T11:58:09.962Z,0.32
2024-03-11T12:03:30.061Z,0.40
2024-03-11T12:08:35.210Z,0.20
2024-03-11T12:13:38.690Z,0.30
2024-03-11T12:18:43.810Z,0.30
2024-03-11T12:23:47.285Z,0.40
2024-03-11T12:29:09.381Z,0.30
2024-03-11T12:34:15.418Z,0.20
2024-03-11T12:39:28.063Z,0.20
2024-03-11T12:44:33.313Z,0.15
2024-03-11T12:49:35.503Z,0.35
2024-03-11T12:54:40.632Z,0.20
2024-03-11T12:59:58.990Z,0.30
2024-03-11T13:05:18.419Z,0.40
2024-03-11T13:10:21.831Z,0.35
2024-03-11T13:15:25.233Z,0.22
2024-03-11T13:20:38.750Z,0.20
2024-03-11T13:25:43.949Z,0.77
2024-03-11T13:30:50.717Z,0.20
2024-03-11T13:35:56.843Z,0.10
2024-03-11T13:41:00.326Z,0.20
2024-03-11T13:46:02.733Z,0.28
2024-03-11T13:51:05.011Z,0.10
2024-03-11T13:56:08.029Z,0.20
2024-03-11T14:01:11.776Z,0.20
2024-03-11T14:06:14.760Z,0.15
2024-03-11T14:11:19.692Z,0.20
2024-03-11T14:16:22.145Z,0.10
2024-03-11T14:21:26.231Z,0.22
2024-03-11T14:26:28.796Z,0.20
2024-03-11T14:31:31.478Z,0.28
2024-03-11T14:36:33.904Z,0.10
2024-03-11T14:41:36.084Z,0.20
2024-03-11T14:46:44.519Z,0.30
2024-03-11T14:51:56.794Z,0.30
2024-03-11T14:56:59.540Z,0.20
2024-03-11T15:02:02.814Z,0.20
2024-03-11T15:07:05.722Z,0.17
2024-03-11T15:12:09.690Z,0.30
2024-03-11T15:17:11.856Z,0.30
2024-03-11T15:22:15.028Z,0.30
2024-03-11T15:27:17.172Z,0.20
2024-03-11T15:32:19.666Z,0.32
2024-03-11T15:37:21.818Z,0.30
2024-03-11T15:42:23.760Z,0.43
2024-03-11T15:47:26.606Z,0.20
2024-03-11T15:52:28.603Z,0.30
2024-03-11T15:57:30.670Z,0.38
2024-03-11T16:02:32.813Z,0.30
2024-03-11T16:07:34.955Z,0.63
2024-03-11T16:12:37.251Z,0.77
2024-03-11T16:17:42.099Z,0.40
2024-03-11T16:22:45.545Z,0.32
2024-03-11T16:27:48.166Z,0.20
2024-03-11T16:32:53.866Z,0.40
2024-03-11T16:37:57.619Z,0.20
2024-03-11T16:43:12.010Z,0.60
2024-03-11T16:48:15.225Z,0.38
2024-03-11T16:53:22.925Z,0.95
2024-03-11T16:58:25.757Z,0.47
2024-03-11T17:03:29.981Z,0.40
2024-03-11T17:08:31.955Z,0.80
2024-03-11T17:13:35.090Z,0.80
2024-03-11T17:18:37.225Z,1.05
2024-03-11T17:23:39.524Z,1.17
2024-03-11T17:28:41.681Z,0.80
2024-03-11T17:33:43.786Z,0.77
2024-03-11T17:38:46.863Z,1.33
2024-03-11T17:43:50.337Z,0.70
2024-03-11T17:48:53.076Z,0.80
2024-03-11T17:53:55.130Z,0.77
2024-03-11T17:58:57.273Z,0.80
2024-03-11T18:03:59.308Z,0.60
2024-03-11T18:09:01.313Z,0.98
2024-03-11T18:14:03.483Z,1.00
2024-03-11T18:19:09.218Z,0.90
2024-03-11T18:24:13.329Z,1.00
2024-03-11T18:29:15.616Z,0.63
2024-03-11T18:34:17.566Z,0.57
2024-03-11T18:39:22.341Z,0.68
2024-03-11T18:44:26.070Z,0.52
2024-03-11T18:49:28.136Z,0.90
2024-03-11T18:54:30.525Z,1.38
2024-03-11T18:59:33.565Z,0.50
2024-03-11T19:04:36.527Z,0.95
2024-03-11T19:09:39.085Z,1.00
2024-03-11T19:14:41.690Z,0.70
2024-03-11T19:19:47.995Z,0.68
2024-03-11T19:24:50.081Z,0.60
2024-03-11T19:29:52.146Z,0.50
2024-03-11T19:34:54.308Z,0.50
2024-03-11T19:40:13.633Z,0.60
2024-03-11T19:45:32.830Z,0.70
2024-03-11T19:51:13.377Z,0.50
2024-03-11T19:56:40.144Z,0.60
2024-03-11T20:01:51.542Z,0.60
2024-03-11T20:07:25.507Z,0.50
2024-03-11T20:13:04.616Z,0.80
2024-03-11T20:18:39.795Z,0.70
2024-03-11T20:24:06.554Z,0.55
2024-03-11T20:29:26.501Z,0.80
2024-03-11T20:34:28.649Z,0.50
2024-03-11T20:39:30.649Z,0.65
2024-03-11T20:44:33.178Z,0.82
2024-03-11T20:49:35.298Z,0.70
2024-03-11T20:54:37.725Z,0.80
2024-03-11T20:59:41.215Z,1.15
2024-03-11T21:04:43.857Z,1.13
2024-03-11T21:09:46.092Z,1.40
2024-03-11T21:14:48.068Z,1.20
2024-03-11T21:19:53.819Z,1.70
2024-03-11T21:24:59.198Z,1.70
2024-03-11T21:30:03.460Z,2.20
2024-03-11T21:35:05.769Z,1.80
2024-03-11T21:40:12.776Z,2.17
2024-03-11T21:45:15.764Z,2.15
2024-03-11T21:50:18.364Z,1.83
2024-03-11T21:55:20.452Z,1.73
2024-03-11T22:00:22.540Z,1.95
2024-03-11T22:05:24.645Z,1.30
2024-03-11T22:10:26.655Z,1.73
2024-03-11T22:15:28.766Z,2.00
2024-03-11T22:20:30.899Z,1.50
2024-03-11T22:25:32.879Z,2.45
2024-03-11T22:30:35.000Z,2.50
2024-03-11T22:35:36.994Z,2.75
2024-03-11T22:40:40.843Z,2.42
2024-03-11T22:45:42.958Z,3.25
2024-03-11T22:50:45.820Z,2.15
2024-03-11T22:55:47.907Z,2.72
2024-03-11T23:00:56.523Z,2.95
2024-03-11T23:06:16.242Z,3.10
2024-03-11T23:11:20.522Z,3.17
2024-03-11T23:16:23.317Z,2.58
2024-03-11T23:21:26.648Z,3.15
2024-03-11T23:26:29.016Z,2.90
2024-03-11T23:31:31.109Z,2.80
2024-03-11T23:36:33.037Z,2.60
2024-03-11T23:41:35.338Z,3.33
2024-03-11T23:46:37.464Z,3.65
2024-03-11T23:51:40.632Z,3.70
2024-03-11T23:56:44.654Z,3.65
